createdAt,value
2017-03-24T11:03:56.329Z,91.5
2017-03-24T11:04:36.792Z,91.98
2017-03-24T11:05:17.284Z,91.79
2017-03-24T11:05:57.788Z,91.69
2017-03-24T11:08:10.588Z,91.07
2017-03-24T11:08:51.078Z,91.27
2017-03-24T11:09:31.557Z,90.59
2017-03-24T11:10:12.011Z,90.5
2017-03-24T11:10:52.499Z,90.79
2017-03-24T11:11:32.968Z,90.69
2017-03-24T11:12:13.464Z,91.07
2017-03-24T11:12:53.946Z,91.27
2017-03-24T11:13:34.423Z,91.13
2017-03-24T11:14:14.916Z,90.98
2017-03-24T11:14:55.364Z,90.98
2017-03-24T11:15:35.800Z,90.88
2017-03-24T11:16:16.271Z,90.98
2017-03-24T11:16:56.709Z,90.98
2017-03-24T11:17:37.181Z,90.59
2017-03-24T11:18:17.618Z,90.64
2017-03-24T11:20:15.200Z,91.31
2017-03-24T11:20:55.730Z,90.88
2017-03-24T11:21:36.202Z,90.79
2017-03-24T11:22:16.593Z,90.59
2017-03-24T11:22:57.065Z,90.59
2017-03-24T11:23:37.604Z,90.84
2017-03-24T11:24:18.054Z,90.93
2017-03-24T11:24:58.487Z,91.13
2017-03-24T11:25:38.968Z,90.69
2017-03-24T11:26:19.425Z,90.41
2017-03-24T11:26:59.873Z,90.41
2017-03-24T11:27:40.313Z,90.22
2017-03-24T11:28:20.762Z,90.22
2017-03-24T11:29:01.218Z,90.03
2017-03-24T11:29:41.704Z,90.03
2017-03-24T11:30:22.169Z,90.22
2017-03-24T11:31:02.631Z,90.31
2017-03-24T11:31:43.147Z,89.74
2017-03-24T11:32:23.563Z,89.64
2017-03-24T11:33:04.026Z,89.54
2017-03-24T11:33:44.482Z,89.74
2017-03-24T11:34:24.941Z,89.64
2017-03-24T11:35:05.363Z,89.54
2017-03-24T11:35:45.829Z,89.83
2017-03-24T11:36:26.292Z,88.98
2017-03-24T11:37:06.745Z,89.07
2017-03-24T11:37:47.211Z,89.26
2017-03-24T11:38:27.671Z,89.74
2017-03-24T11:39:08.194Z,89.64
2017-03-24T11:39:48.704Z,89.54
2017-03-24T11:40:29.140Z,89.54
2017-03-24T11:41:09.788Z,89.07
2017-03-24T11:41:50.262Z,89.07
2017-03-24T11:43:42.826Z,89.45
2017-03-24T11:44:23.259Z,88.98
2017-03-24T11:45:03.709Z,89.54
2017-03-24T11:45:44.128Z,89.45
2017-03-24T11:46:24.649Z,89.45
2017-03-24T11:47:05.047Z,89.36
2017-03-24T11:47:45.549Z,89.74
2017-03-24T11:49:43.156Z,89.45
2017-03-24T11:50:23.592Z,90.03
2017-03-24T11:51:04.073Z,90.41
2017-03-24T11:51:44.527Z,89.74
2017-03-24T11:52:24.990Z,89.64
2017-03-24T11:53:05.454Z,89.26
2017-03-24T11:53:45.936Z,89.64
2017-03-24T11:54:26.396Z,89.93
2017-03-24T11:55:06.821Z,90.31
2017-03-24T11:55:47.281Z,90.12
2017-03-24T11:56:27.703Z,90.41
2017-03-24T11:57:08.163Z,90.79
2017-03-24T11:57:48.637Z,90.98
2017-03-24T11:58:29.115Z,91.03
2017-03-24T11:59:09.571Z,91.07
2017-03-24T11:59:50.041Z,90.69
2017-03-24T12:00:30.967Z,90.98
2017-03-24T12:01:11.418Z,90.69
2017-03-24T12:01:51.901Z,90.69
2017-03-24T12:02:32.322Z,90.64
2017-03-24T12:03:12.907Z,90.59
2017-03-24T12:03:53.409Z,90.74
2017-03-24T12:04:33.861Z,91.03
2017-03-24T12:05:14.357Z,90.93
2017-03-24T12:05:54.813Z,90.93
2017-03-24T12:06:35.304Z,90.93
2017-03-24T12:07:15.779Z,90.93
2017-03-24T12:07:56.250Z,91.07
2017-03-24T12:10:14.174Z,90.88
2017-03-24T12:10:54.602Z,90.98
2017-03-24T12:11:35.057Z,91.07
2017-03-24T12:12:15.520Z,90.88
2017-03-24T12:12:55.999Z,90.93
2017-03-24T12:13:36.523Z,91.36
2017-03-24T12:14:17.004Z,90.5
2017-03-24T12:14:57.489Z,91.03
2017-03-24T12:15:37.930Z,91.6
2017-03-24T12:16:18.393Z,91.41
2017-03-24T12:16:58.825Z,91.6
2017-03-24T12:17:39.255Z,91.41
2017-03-24T12:18:19.763Z,91.31
2017-03-24T12:19:00.225Z,91.5
2017-03-24T12:19:40.706Z,91.5
2017-03-24T12:20:21.186Z,91.6
2017-03-24T12:21:01.646Z,91.69
2017-03-24T12:21:42.100Z,91.03
2017-03-24T12:22:22.537Z,91.22
2017-03-24T12:23:03.061Z,91.41
2017-03-24T12:23:43.552Z,91.79
2017-03-24T12:24:24.187Z,91.5
2017-03-24T12:25:04.755Z,91.41
2017-03-24T12:26:57.590Z,91.6
2017-03-24T12:27:38.082Z,91.5
2017-03-24T12:28:19.179Z,91.31
2017-03-24T12:28:59.638Z,91.41
2017-03-24T12:29:40.078Z,91.36
2017-03-24T12:30:20.543Z,90.55
2017-03-24T12:31:00.990Z,90.93
2017-03-24T12:31:41.432Z,90.88
2017-03-24T12:32:21.859Z,90.41
2017-03-24T12:33:02.414Z,90.79
2017-03-24T12:33:42.886Z,90.31
2017-03-24T12:34:23.331Z,89.83
2017-03-24T12:36:10.796Z,90.79
2017-03-24T12:36:51.258Z,90.69
2017-03-24T12:37:31.748Z,90.79
2017-03-24T12:38:12.203Z,90.5
2017-03-24T12:38:52.708Z,90.98
2017-03-24T12:39:33.174Z,90.59
2017-03-24T12:40:13.641Z,91.07
2017-03-24T12:40:54.095Z,90.79
2017-03-24T12:41:34.577Z,90.79
2017-03-24T12:42:15.022Z,90.12
2017-03-24T12:42:55.477Z,90.22
2017-03-24T12:43:35.941Z,90.22
2017-03-24T12:44:16.469Z,90.22
2017-03-24T12:44:56.954Z,90.03
2017-03-24T12:45:37.404Z,90.03
2017-03-24T12:47:25.466Z,90.22
2017-03-24T12:48:06.098Z,89.54
2017-03-24T12:48:46.347Z,89.64
2017-03-24T12:49:26.777Z,89.54
2017-03-24T12:50:07.242Z,89.45
2017-03-24T12:50:47.726Z,88.98
2017-03-24T12:51:28.327Z,89.54
2017-03-24T12:52:08.799Z,89.17
2017-03-24T12:52:49.378Z,88.88
2017-03-24T12:53:30.057Z,88.73
2017-03-24T12:54:10.661Z,88.26
2017-03-24T12:54:51.247Z,88.4
2017-03-24T12:55:31.789Z,88.4
2017-03-24T12:56:12.348Z,88.16
2017-03-24T12:56:52.946Z,88.21
2017-03-24T12:57:33.538Z,88.88
2017-03-24T12:58:14.220Z,88.88
2017-03-24T12:58:54.875Z,88.88
2017-03-24T12:59:35.543Z,88.88
2017-03-24T13:00:16.338Z,88.88
2017-03-24T13:00:56.950Z,89.12
2017-03-24T13:01:37.501Z,88.69
2017-03-24T13:02:18.097Z,89.07
2017-03-24T13:02:58.767Z,88.98
2017-03-24T13:03:40.062Z,88.98
2017-03-24T13:04:20.605Z,89.26
2017-03-24T13:05:01.154Z,88.98
2017-03-24T13:05:41.791Z,89.07
2017-03-24T13:06:22.285Z,88.78
2017-03-24T13:07:02.845Z,89.54
2017-03-24T13:07:43.356Z,89.36
2017-03-24T13:08:23.981Z,89.07
2017-03-24T13:09:04.452Z,88.98
2017-03-24T13:09:44.982Z,89.17
2017-03-24T13:10:25.433Z,89.07
2017-03-24T13:12:12.885Z,89.45
2017-03-24T13:12:53.518Z,88.98
2017-03-24T13:13:34.091Z,88.21
2017-03-24T13:14:14.542Z,88.26
2017-03-24T13:14:55.002Z,88.31
2017-03-24T13:15:35.475Z,88.21
2017-03-24T13:16:16.069Z,88.31
2017-03-24T13:16:56.527Z,88.98
2017-03-24T13:17:36.977Z,88.78
2017-03-24T13:18:17.484Z,88.69
2017-03-24T13:18:57.949Z,89.26
2017-03-24T13:19:38.466Z,89.17
2017-03-24T13:21:31.068Z,88.88
2017-03-24T13:22:11.524Z,88.59
2017-03-24T13:22:52.092Z,88.88
2017-03-24T13:23:32.786Z,88.98
2017-03-24T13:24:13.466Z,88.88
2017-03-24T13:24:53.928Z,88.69
2017-03-24T13:25:34.433Z,89.26
2017-03-24T13:26:14.901Z,89.17
2017-03-24T13:28:12.488Z,89.26
2017-03-24T13:28:52.984Z,89.93
2017-03-24T13:29:33.472Z,90.03
2017-03-24T13:30:14.020Z,89.45
2017-03-24T13:30:54.447Z,89.26
2017-03-24T13:31:34.884Z,89.74
2017-03-24T13:32:15.358Z,89.36
2017-03-24T13:32:55.800Z,89.26
2017-03-24T13:33:36.231Z,89.36
2017-03-24T13:34:16.652Z,89.26
2017-03-24T13:34:57.136Z,89.64
2017-03-24T13:35:37.577Z,89.26
2017-03-24T13:36:18.002Z,89.17
2017-03-24T13:36:58.468Z,89.36
2017-03-24T13:37:39.021Z,88.88
2017-03-24T13:38:19.497Z,88.98
2017-03-24T13:38:59.970Z,88.88
2017-03-24T13:39:40.432Z,89.17
2017-03-24T13:40:20.934Z,89.07
2017-03-24T13:41:01.453Z,89.26
2017-03-24T13:41:42.431Z,89.07
2017-03-24T13:42:22.863Z,89.74
2017-03-24T13:43:03.306Z,89.17
2017-03-24T13:43:43.856Z,89.07
2017-03-24T13:44:24.310Z,89.36
2017-03-24T13:45:04.770Z,89.02
2017-03-24T13:45:45.274Z,88.4
2017-03-24T13:46:25.722Z,88.26
2017-03-24T13:47:06.265Z,88.88
2017-03-24T13:47:46.709Z,88.98
2017-03-24T13:49:34.190Z,87.97
2017-03-24T13:50:14.772Z,88.26
2017-03-24T13:50:55.294Z,87.68
2017-03-24T13:51:35.852Z,87.68
2017-03-24T13:52:16.691Z,88.35
2017-03-24T13:52:57.202Z,88.16
2017-03-24T13:53:37.696Z,87.3
2017-03-24T13:54:18.289Z,86.54
2017-03-24T13:54:58.792Z,87.59
2017-03-24T13:55:39.306Z,86.92
2017-03-24T13:56:19.840Z,87.02
2017-03-24T13:57:00.325Z,86.44
2017-03-24T13:57:40.865Z,86.54
2017-03-24T13:58:21.432Z,86.63
2017-03-24T13:59:01.975Z,86.25
2017-03-24T13:59:42.526Z,86.25
2017-03-24T14:00:23.061Z,85.97
2017-03-24T14:01:03.573Z,86.06
2017-03-24T14:01:44.021Z,86.35
2017-03-24T14:02:24.520Z,86.16
2017-03-24T14:03:04.987Z,86.2
2017-03-24T14:03:45.494Z,85.77
2017-03-24T14:04:26.216Z,85.87
2017-03-24T14:05:06.757Z,86.25
2017-03-24T14:05:47.211Z,86.16
2017-03-24T14:06:27.721Z,86.25
2017-03-24T14:07:08.153Z,86.54
2017-03-24T14:07:48.587Z,86.44
2017-03-24T14:08:29.065Z,86.44
2017-03-24T14:09:09.555Z,86.16
2017-03-24T14:09:50.032Z,86.25
2017-03-24T14:11:47.624Z,86.16
2017-03-24T14:12:28.177Z,86.54
2017-03-24T14:13:08.631Z,86.82
2017-03-24T14:13:49.069Z,86.82
2017-03-24T14:14:29.573Z,86.92
2017-03-24T14:15:10.046Z,86.63
2017-03-24T14:15:50.527Z,86.16
2017-03-24T14:16:31.009Z,85.87
2017-03-24T14:17:11.515Z,85.49
2017-03-24T14:17:51.989Z,86.06
2017-03-24T14:18:32.504Z,85.58
2017-03-24T14:19:13.003Z,85.44
2017-03-24T14:19:53.474Z,84.92
2017-03-24T14:20:33.986Z,85.72
2017-03-24T14:21:14.467Z,84.96
2017-03-24T14:21:55.027Z,85.05
2017-03-24T14:22:35.655Z,84.67
2017-03-24T14:24:23.176Z,84.86
2017-03-24T14:25:03.722Z,84.48
2017-03-24T14:25:44.264Z,84.77
2017-03-24T14:26:24.747Z,84.2
2017-03-24T14:27:05.194Z,84.29
2017-03-24T14:27:45.647Z,84.86
2017-03-24T14:28:26.076Z,85.63
2017-03-24T14:30:18.646Z,85.15
2017-03-24T14:30:59.114Z,84.1
2017-03-24T14:31:39.650Z,83.81
2017-03-24T14:32:20.114Z,84.86
2017-03-24T14:33:00.591Z,84.86
2017-03-24T14:33:41.041Z,84.77
2017-03-24T14:34:21.508Z,84.58
2017-03-24T14:35:02.092Z,84.39
2017-03-24T14:35:42.513Z,83.62
2017-03-24T14:36:22.979Z,84
2017-03-24T14:38:10.466Z,83.72
2017-03-24T14:38:50.969Z,83.91
2017-03-24T14:39:31.493Z,84.1
2017-03-24T14:40:12.002Z,84.39
2017-03-24T14:40:52.469Z,84.1
2017-03-24T14:41:33.763Z,84.2
2017-03-24T14:42:14.209Z,84.1
2017-03-24T14:42:54.654Z,84
2017-03-24T14:43:35.222Z,84.2
2017-03-24T14:44:15.795Z,84.96
2017-03-24T14:44:56.317Z,85.3
2017-03-24T14:45:36.808Z,85.87
2017-03-24T14:46:17.287Z,86.16
2017-03-24T14:46:57.729Z,85.87
2017-03-24T14:47:38.258Z,86.63
2017-03-24T14:48:18.753Z,85.97
2017-03-24T14:48:59.271Z,86.25
2017-03-24T14:49:39.729Z,85.49
2017-03-24T14:50:20.193Z,85.34
2017-03-24T14:51:00.627Z,85.72
2017-03-24T14:51:41.092Z,85.53
2017-03-24T14:53:38.694Z,85.53
2017-03-24T14:54:19.174Z,85.44
2017-03-24T14:54:59.710Z,85.05
2017-03-24T14:55:40.108Z,85.05
2017-03-24T14:56:20.610Z,85.05
2017-03-24T14:57:01.067Z,85.34
2017-03-24T14:58:58.759Z,85.97
2017-03-24T14:59:39.211Z,85.58
2017-03-24T15:00:19.704Z,85.72
2017-03-24T15:01:00.176Z,85.39
2017-03-24T15:01:40.623Z,85.77
2017-03-24T15:02:21.082Z,86.16
2017-03-24T15:04:13.716Z,85.97
2017-03-24T15:04:54.215Z,86.06
2017-03-24T15:05:34.768Z,85.97
2017-03-24T15:06:15.309Z,85.44
2017-03-24T15:06:55.788Z,85.34
2017-03-24T15:07:36.263Z,85.34
2017-03-24T15:08:16.774Z,85.91
2017-03-24T15:08:57.330Z,86.3
2017-03-24T15:09:37.685Z,85.15
2017-03-24T15:10:18.138Z,84.67
2017-03-24T15:10:58.720Z,85.34
2017-03-24T15:11:39.375Z,85.05
2017-03-24T15:12:19.952Z,84.86
2017-03-24T15:13:00.607Z,84.58
2017-03-24T15:13:41.122Z,85.05
2017-03-24T15:14:21.559Z,85.58
2017-03-24T15:15:02.073Z,85.87
2017-03-24T15:15:42.562Z,85.68
2017-03-24T15:16:23.093Z,85.82
2017-03-24T15:17:03.551Z,86.06
2017-03-24T15:17:43.958Z,85.97
2017-03-24T15:18:24.417Z,86.16
2017-03-24T15:19:04.874Z,85.77
2017-03-24T15:19:45.401Z,85.68
2017-03-24T15:20:25.997Z,86.06
2017-03-24T15:21:06.553Z,85.82
2017-03-24T15:21:47.069Z,85.97
2017-03-24T15:22:27.582Z,85.77
2017-03-24T15:23:08.125Z,86.25
2017-03-24T15:23:48.639Z,86.16
2017-03-24T15:24:29.127Z,86.92
2017-03-24T15:25:09.571Z,86.63
2017-03-24T15:25:49.979Z,86.54
2017-03-24T15:26:30.434Z,86.35
2017-03-24T15:27:10.891Z,86.54
2017-03-24T15:29:03.497Z,85.97
2017-03-24T15:29:43.984Z,86.01
2017-03-24T15:30:24.524Z,86.1
2017-03-24T15:31:05.060Z,86.1
2017-03-24T15:31:45.590Z,85.25
2017-03-24T15:32:26.113Z,85.3
2017-03-24T15:33:06.601Z,85.68
2017-03-24T15:33:47.040Z,86.06
2017-03-24T15:34:27.483Z,85.82
2017-03-24T15:35:07.920Z,86.01
2017-03-24T15:35:48.375Z,86.25
2017-03-24T15:36:28.847Z,85.87
2017-03-24T15:37:09.316Z,85.77
2017-03-24T15:37:49.748Z,86.16
2017-03-24T15:38:30.223Z,85.87
2017-03-24T15:39:10.706Z,85.97
2017-03-24T15:39:51.252Z,86.25
2017-03-24T15:40:31.742Z,85.97
2017-03-24T15:41:12.215Z,85.58
2017-03-24T15:41:52.658Z,86.73
2017-03-24T15:42:33.133Z,86.06
2017-03-24T15:43:14.315Z,86.06
2017-03-24T15:43:54.845Z,86.25
2017-03-24T15:44:35.327Z,85.97
2017-03-24T15:45:15.812Z,85.97
2017-03-24T15:45:56.286Z,85.39
2017-03-24T15:46:36.748Z,85.58
2017-03-24T15:47:17.197Z,85.49
2017-03-24T15:47:57.694Z,86.25
2017-03-24T15:48:38.148Z,85.97
2017-03-24T15:49:18.607Z,85.21
2017-03-24T15:49:59.069Z,85.11
2017-03-24T15:50:39.522Z,84.92
2017-03-24T15:51:20.006Z,84.53
2017-03-24T15:52:00.429Z,84.82
2017-03-24T15:52:40.889Z,85.49
2017-03-24T15:53:21.403Z,85.49
2017-03-24T15:54:01.861Z,84.63
2017-03-24T15:54:42.365Z,85.01
2017-03-24T15:55:22.889Z,84.92
2017-03-24T15:56:03.379Z,85.39
2017-03-24T15:56:43.805Z,84.92
2017-03-24T15:57:24.288Z,85.01
2017-03-24T15:58:04.742Z,85.11
2017-03-24T15:58:45.232Z,85.01
2017-03-24T15:59:25.653Z,85.21
2017-03-24T16:00:06.107Z,84.92
2017-03-24T16:00:46.529Z,85.49
2017-03-24T16:03:04.374Z,85.01
2017-03-24T16:03:44.820Z,85.58
2017-03-24T16:04:25.282Z,85.21
2017-03-24T16:05:05.741Z,85.11
2017-03-24T16:05:46.188Z,85.01
2017-03-24T16:07:58.888Z,84.72
2017-03-24T16:08:39.399Z,85.21
2017-03-24T16:09:19.872Z,85.58
2017-03-24T16:10:00.382Z,85.21
2017-03-24T16:10:40.872Z,85.11
2017-03-24T16:11:21.389Z,85.11
2017-03-24T16:12:01.868Z,85.01
2017-03-24T16:12:42.317Z,85.3
2017-03-24T16:14:29.861Z,84.72
2017-03-24T16:15:10.252Z,84.77
2017-03-24T16:15:50.808Z,85.11
2017-03-24T16:16:31.300Z,84.86
2017-03-24T16:17:11.817Z,84.86
2017-03-24T16:17:52.345Z,84.63
2017-03-24T16:18:32.737Z,85.15
2017-03-24T16:19:13.179Z,84.53
2017-03-24T16:19:53.661Z,85.01
2017-03-24T16:20:34.099Z,84.86
2017-03-24T16:21:14.582Z,84.86
2017-03-24T16:21:55.036Z,84.77
2017-03-24T16:22:35.497Z,84.96
2017-03-24T16:23:16.026Z,84.86
2017-03-24T16:23:56.472Z,84.77
2017-03-24T16:24:36.942Z,84.63
2017-03-24T16:25:17.382Z,85.3
2017-03-24T16:25:57.815Z,84.86
2017-03-24T16:26:38.342Z,84.72
2017-03-24T16:28:51.100Z,84.86
2017-03-24T16:29:31.636Z,84.67
2017-03-24T16:30:12.106Z,84.58
2017-03-24T16:30:52.590Z,84.39
2017-03-24T16:31:33.039Z,84.48
2017-03-24T16:32:13.477Z,84.16
2017-03-24T16:32:53.963Z,84.82
2017-03-24T16:33:34.417Z,84.96
2017-03-24T16:35:47.181Z,84.67
2017-03-24T16:36:27.708Z,84.25
2017-03-24T16:37:08.177Z,84.39
2017-03-24T16:37:48.638Z,83.91
2017-03-24T16:38:29.122Z,83.96
2017-03-24T16:39:09.593Z,84.29
2017-03-24T16:39:50.069Z,84.34
2017-03-24T16:40:30.530Z,84.2
2017-03-24T16:41:11.031Z,84.2
2017-03-24T16:41:51.476Z,84.1
2017-03-24T16:42:31.928Z,84.92
2017-03-24T16:43:12.361Z,85.21
2017-03-24T16:43:52.942Z,85.21
2017-03-24T16:44:33.380Z,85.01
2017-03-24T16:46:20.867Z,85.39
2017-03-24T16:47:01.411Z,85.3
2017-03-24T16:47:41.898Z,85.68
2017-03-24T16:48:22.427Z,85.97
2017-03-24T16:49:03.003Z,85.68
2017-03-24T16:49:43.388Z,85.87
2017-03-24T16:50:23.875Z,85.97
2017-03-24T16:52:11.343Z,85.77
2017-03-24T16:52:51.878Z,85.77
2017-03-24T16:53:32.409Z,85.58
2017-03-24T16:54:12.960Z,85.77
2017-03-24T16:54:53.451Z,85.77
2017-03-24T16:55:34.016Z,85.68
2017-03-24T16:56:14.433Z,85.97
2017-03-24T16:56:54.909Z,85.97
2017-03-24T16:57:35.400Z,86.16
2017-03-24T16:58:15.852Z,85.68
2017-03-24T17:00:13.468Z,86.16
2017-03-24T17:00:53.899Z,86.06
2017-03-24T17:01:34.353Z,85.77
2017-03-24T17:02:14.800Z,86.06
2017-03-24T17:02:55.229Z,85.77
2017-03-24T17:03:35.672Z,85.77
2017-03-24T17:04:16.106Z,85.97
2017-03-24T17:04:56.545Z,86.06
2017-03-24T17:05:36.985Z,85.97
2017-03-24T17:06:17.463Z,85.68
2017-03-24T17:06:57.925Z,85.77
2017-03-24T17:07:38.409Z,85.97
2017-03-24T17:09:56.145Z,85.87
2017-03-24T17:10:36.643Z,86.06
2017-03-24T17:11:17.080Z,86.25
2017-03-24T17:11:57.535Z,85.87
2017-03-24T17:12:37.997Z,85.54
2017-03-24T17:13:18.431Z,85.83
2017-03-24T17:13:58.877Z,85.77
2017-03-24T17:14:39.289Z,85.87
2017-03-24T17:15:19.731Z,85.83
2017-03-24T17:17:32.446Z,86.35
2017-03-24T17:18:12.886Z,86.44
2017-03-24T17:18:53.348Z,86.4
2017-03-24T17:19:33.781Z,86.69
2017-03-24T17:20:14.262Z,86.98
2017-03-24T17:20:55.293Z,86.59
2017-03-24T17:21:35.722Z,86.78
2017-03-24T17:22:16.167Z,86.69
2017-03-24T17:22:56.608Z,87.07
2017-03-24T17:23:37.050Z,87.45
2017-03-24T17:24:17.518Z,87.16
2017-03-24T17:24:57.947Z,87.54
2017-03-24T17:26:50.486Z,87.35
2017-03-24T17:27:30.941Z,87.16
2017-03-24T17:28:11.397Z,87.54
2017-03-24T17:28:51.884Z,87.35
2017-03-24T17:29:32.341Z,87.54
2017-03-24T17:30:12.826Z,87.64
2017-03-24T17:30:53.261Z,88.02
2017-03-24T17:32:50.869Z,87.54
2017-03-24T17:33:31.323Z,87.45
2017-03-24T17:34:11.749Z,86.98
2017-03-24T17:34:52.213Z,87.16
2017-03-24T17:35:32.669Z,87.54
2017-03-24T17:36:13.111Z,87.35
2017-03-24T17:38:30.992Z,87.54
2017-03-24T17:39:11.409Z,88.21
2017-03-24T17:39:51.900Z,88.02
2017-03-24T17:40:32.412Z,88.21
2017-03-24T17:41:12.822Z,87.93
2017-03-24T17:41:53.281Z,88.02
2017-03-24T17:42:33.730Z,88.12
2017-03-24T17:43:14.174Z,87.26
2017-03-24T17:43:54.615Z,87.54
2017-03-24T17:44:35.076Z,88.02
2017-03-24T17:45:15.568Z,87.83
2017-03-24T17:45:56.011Z,87.83
2017-03-24T17:46:36.450Z,87.83
2017-03-24T17:47:16.858Z,87.74
2017-03-24T17:47:57.305Z,87.83
2017-03-24T17:48:37.827Z,87.83
2017-03-24T17:49:18.282Z,88.12
2017-03-24T17:49:58.739Z,88.02
2017-03-24T17:51:46.239Z,87.88
2017-03-24T17:52:26.634Z,87.88
2017-03-24T17:53:07.080Z,88.36
2017-03-24T17:53:47.532Z,88.17
2017-03-24T17:54:28.072Z,88.17
2017-03-24T17:55:08.531Z,88.17
2017-03-24T17:55:49.021Z,88.17
2017-03-24T17:56:29.507Z,88.84
2017-03-24T17:57:09.934Z,88.74
2017-03-24T17:57:50.396Z,88.74
2017-03-24T17:58:30.807Z,88.64
2017-03-24T17:59:11.265Z,88.74
2017-03-24T17:59:51.740Z,88.84
2017-03-24T18:00:32.191Z,88.74
2017-03-24T18:01:12.645Z,88.84
2017-03-24T18:01:53.106Z,88.84
2017-03-24T18:02:33.552Z,89.03
2017-03-24T18:03:14.043Z,89.03
2017-03-24T18:03:54.474Z,88.64
2017-03-24T18:04:34.922Z,89.03
2017-03-24T18:05:15.385Z,88.84
2017-03-24T18:05:55.836Z,88.74
2017-03-24T18:06:36.290Z,88.64
2017-03-24T18:07:16.807Z,88.36
2017-03-24T18:07:57.241Z,88.84
2017-03-24T18:08:37.693Z,88.84
2017-03-24T18:09:18.146Z,88.64
2017-03-24T18:09:58.603Z,89.4
2017-03-24T18:11:56.241Z,88.74
2017-03-24T18:12:36.735Z,89.22
2017-03-24T18:13:17.207Z,88.84
2017-03-24T18:13:57.668Z,88.64
2017-03-24T18:14:38.151Z,89.31
2017-03-24T18:15:18.623Z,89.31
2017-03-24T18:15:59.104Z,89.4
2017-03-24T18:16:39.587Z,89.31
2017-03-24T18:17:20.033Z,89.22
2017-03-24T18:18:00.517Z,89.12
2017-03-24T18:18:40.998Z,89.5
2017-03-24T18:19:21.484Z,88.93
2017-03-24T18:20:01.987Z,89.22
2017-03-24T18:20:42.490Z,89.4
2017-03-24T18:21:23.003Z,89.6
2017-03-24T18:22:03.460Z,88.93
2017-03-24T18:22:43.898Z,89.6
2017-03-24T18:23:24.351Z,89.5
2017-03-24T18:24:04.818Z,90.08
2017-03-24T18:24:45.261Z,89.79
2017-03-24T18:26:32.729Z,89.89
2017-03-24T18:27:13.184Z,89.89
2017-03-24T18:27:53.657Z,89.79
2017-03-24T18:28:34.149Z,89.98
2017-03-24T18:29:14.622Z,89.79
2017-03-24T18:29:55.083Z,90.26
2017-03-24T18:32:12.985Z,90.17
2017-03-24T18:32:53.483Z,89.69
2017-03-24T18:33:33.961Z,90.08
2017-03-24T18:34:14.426Z,90.17
2017-03-24T18:34:54.939Z,89.94
2017-03-24T18:35:35.399Z,90.03
2017-03-24T18:36:15.818Z,89.84
2017-03-24T18:36:56.264Z,89.65
2017-03-24T18:37:36.722Z,90.12
2017-03-24T18:38:17.158Z,90.31
2017-03-24T18:40:14.859Z,90.22
2017-03-24T18:40:55.252Z,90.22
2017-03-24T18:41:35.720Z,90.12
2017-03-24T18:42:16.192Z,90.6
2017-03-24T18:42:56.672Z,90.41
2017-03-24T18:43:37.136Z,90.6
2017-03-24T18:44:17.612Z,89.84
2017-03-24T18:44:58.068Z,90.12
2017-03-24T18:47:10.771Z,90.5
2017-03-24T18:47:51.202Z,90.7
2017-03-24T18:48:31.665Z,89.84
2017-03-24T18:49:12.117Z,90.12
2017-03-24T18:49:52.571Z,89.94
2017-03-24T18:50:33.031Z,89.55
2017-03-24T18:51:13.478Z,89.75
2017-03-24T18:51:53.907Z,90.12
2017-03-24T18:52:34.334Z,89.94
2017-03-24T18:53:14.772Z,90.31
2017-03-24T18:53:55.215Z,90.31
2017-03-24T18:54:35.647Z,90.03
2017-03-24T18:55:16.078Z,89.84
2017-03-24T18:55:56.513Z,89.84
2017-03-24T18:56:36.951Z,89.65
2017-03-24T18:57:17.399Z,89.84
2017-03-24T18:57:57.841Z,89.84
2017-03-24T18:58:38.313Z,89.84
2017-03-24T18:59:18.762Z,90.5
2017-03-24T18:59:59.240Z,90.5
2017-03-24T19:00:39.687Z,90.22
2017-03-24T19:01:20.178Z,90.31
2017-03-24T19:02:00.622Z,90.41
2017-03-24T19:02:41.081Z,90.5
2017-03-24T19:03:21.526Z,91.08
2017-03-24T19:04:01.955Z,90.79
2017-03-24T19:04:42.415Z,90.79
2017-03-24T19:05:22.825Z,90.6
2017-03-24T19:06:03.261Z,90.41
2017-03-24T19:06:43.697Z,90.6
2017-03-24T19:07:24.100Z,90.5
2017-03-24T19:08:04.539Z,90.98
2017-03-24T19:08:44.998Z,90.89
2017-03-24T19:09:25.463Z,90.7
2017-03-24T19:10:05.904Z,91.27
2017-03-24T19:10:46.372Z,91.17
2017-03-24T19:11:26.824Z,90.79
2017-03-24T19:12:07.273Z,91.27
2017-03-24T19:12:47.709Z,90.98
2017-03-24T19:13:28.162Z,91.17
2017-03-24T19:14:08.630Z,91.08
2017-03-24T19:14:49.073Z,90.7
2017-03-24T19:15:29.543Z,90.79
2017-03-24T19:16:10.022Z,91.36
2017-03-24T19:16:50.482Z,91.17
2017-03-24T19:17:30.927Z,91.55
2017-03-24T19:18:11.332Z,91.36
2017-03-24T19:18:51.786Z,91.08
2017-03-24T19:19:32.233Z,91.03
2017-03-24T19:20:12.688Z,91.22
2017-03-24T19:20:53.130Z,91.31
2017-03-24T19:21:33.560Z,91.31
2017-03-24T19:22:14.017Z,91.51
2017-03-24T19:22:54.417Z,91.7
2017-03-24T19:23:34.872Z,91.89
2017-03-24T19:24:15.333Z,91.79
2017-03-24T19:24:55.795Z,91.51
2017-03-24T19:26:53.442Z,91.99
2017-03-24T19:27:33.896Z,92.27
2017-03-24T19:28:14.354Z,92.27
2017-03-24T19:28:54.774Z,92.27
2017-03-24T19:29:35.219Z,92.6
2017-03-24T19:30:15.655Z,92.84
2017-03-24T19:30:56.141Z,92.84
2017-03-24T19:31:36.570Z,92.74
2017-03-24T19:32:17.030Z,92.65
2017-03-24T19:32:57.483Z,92.46
2017-03-24T19:33:37.964Z,92.46
2017-03-24T19:34:18.391Z,92.46
2017-03-24T19:34:58.824Z,92.94
2017-03-24T19:35:39.260Z,92.84
2017-03-24T19:36:19.701Z,92.94
2017-03-24T19:37:00.144Z,92.94
2017-03-24T19:37:40.604Z,93.22
2017-03-24T19:38:21.076Z,92.55
2017-03-24T19:39:01.513Z,92.84
2017-03-24T19:39:41.971Z,92.74
2017-03-24T19:40:22.460Z,93.22
2017-03-24T19:41:02.857Z,93.22
2017-03-24T19:41:43.305Z,93.22
2017-03-24T19:42:23.714Z,93.32
2017-03-24T19:44:16.245Z,93.22
2017-03-24T19:44:56.732Z,92.36
2017-03-24T19:45:37.195Z,92.94
2017-03-24T19:46:17.665Z,92.94
2017-03-24T19:48:30.347Z,93.13
2017-03-24T19:49:10.791Z,92.94
2017-03-24T19:49:51.273Z,92.84
2017-03-24T19:50:31.731Z,93.13
2017-03-24T19:51:12.200Z,93.22
2017-03-24T19:51:52.678Z,92.94
2017-03-24T19:52:33.114Z,93.03
2017-03-24T19:53:13.551Z,92.94
2017-03-24T19:53:53.978Z,92.94
2017-03-24T19:54:34.492Z,92.55
2017-03-24T19:55:14.973Z,93.03
2017-03-24T19:55:55.426Z,92.84
2017-03-24T19:56:35.852Z,92.74
2017-03-24T19:57:16.301Z,92.65
2017-03-24T19:57:56.740Z,92.94
2017-03-24T19:58:37.163Z,92.84
2017-03-24T19:59:17.628Z,92.84
2017-03-24T19:59:58.073Z,93.41
2017-03-24T20:02:10.876Z,93.98
2017-03-24T20:02:51.277Z,93.74
2017-03-24T20:03:31.754Z,93.98
2017-03-24T20:04:12.230Z,93.46
2017-03-24T20:04:52.705Z,93.79
2017-03-24T20:05:33.181Z,94.32
2017-03-24T20:06:13.621Z,93.84
2017-03-24T20:06:54.119Z,94.08
2017-03-24T20:07:34.574Z,94.42
2017-03-24T20:08:15.035Z,94.32
2017-03-24T20:10:02.504Z,95.08
2017-03-24T20:10:42.957Z,94.7
2017-03-24T20:11:23.423Z,94.6
2017-03-24T20:12:03.881Z,94.79
2017-03-24T20:12:44.361Z,94.89
2017-03-24T20:13:24.791Z,95.17
2017-03-24T20:14:05.235Z,94.51
2017-03-24T20:14:45.702Z,94.79
2017-03-24T20:15:26.167Z,95.08
2017-03-24T20:16:06.571Z,95.08
2017-03-24T20:16:47.028Z,94.98
2017-03-24T20:17:27.469Z,95.27
2017-03-24T20:18:07.896Z,94.79
2017-03-24T20:18:48.334Z,94.79
2017-03-24T20:19:28.787Z,95.17
2017-03-24T20:21:46.575Z,95.46
2017-03-24T20:22:27.044Z,95.46
2017-03-24T20:23:07.509Z,95.46
2017-03-24T20:23:47.996Z,95.56
2017-03-24T20:24:28.449Z,95.36
2017-03-24T20:25:08.955Z,95.27
2017-03-24T20:25:49.398Z,95.46
2017-03-24T20:26:29.864Z,95.46
2017-03-24T20:27:10.319Z,95.75
2017-03-24T20:29:07.921Z,95.46
2017-03-24T20:29:48.394Z,95.65
2017-03-24T20:30:28.838Z,95.75
2017-03-24T20:31:09.298Z,95.75
2017-03-24T20:31:49.752Z,95.94
2017-03-24T20:32:30.201Z,95.84
2017-03-24T20:33:10.667Z,95.56
2017-03-24T20:35:23.368Z,96.22
2017-03-24T20:36:03.843Z,96.31
2017-03-24T20:36:44.273Z,96.12
2017-03-24T20:38:56.972Z,96.22
2017-03-24T20:39:37.419Z,96.41
2017-03-24T20:40:17.925Z,96.41
2017-03-24T20:40:58.391Z,96.31
2017-03-24T20:41:38.799Z,96.89
2017-03-24T20:42:19.265Z,97.08
2017-03-24T20:44:16.880Z,97.08
2017-03-24T20:44:57.363Z,96.98
2017-03-24T20:45:37.798Z,96.98
2017-03-24T20:46:18.254Z,96.89
2017-03-24T20:46:58.740Z,97.74
2017-03-24T20:47:39.141Z,96.98
2017-03-24T20:48:19.608Z,97.65
2017-03-24T20:49:00.051Z,97.55
2017-03-24T20:49:40.498Z,97.36
2017-03-24T20:50:20.934Z,97.36
2017-03-24T20:51:01.336Z,97.46